createdAt,value
2018-01-30T00:01:57.012Z,95101.50
2018-01-30T00:04:24.691Z,95095.52
2018-01-30T00:06:52.465Z,95096.40
2018-01-30T00:09:20.183Z,95093.05
2018-01-30T00:11:47.992Z,95091.05
2018-01-30T00:14:16.003Z,95088.67
2018-01-30T00:16:44.021Z,95085.42
2018-01-30T00:19:11.911Z,95075.94
2018-01-30T00:21:39.926Z,95076.59
2018-01-30T00:24:08.653Z,95076.16
2018-01-30T00:26:36.714Z,95069.37
2018-01-30T00:29:04.830Z,95079.86
2018-01-30T00:31:32.665Z,95092.02
2018-01-30T00:34:00.531Z,95078.13
2018-01-30T00:36:28.984Z,95072.31
2018-01-30T00:38:57.915Z,95066.28
2018-01-30T00:41:25.877Z,95047.65
2018-01-30T00:43:53.977Z,95063.59
2018-01-30T00:46:22.018Z,95064.40
2018-01-30T00:48:50.016Z,95071.46
2018-01-30T00:51:17.934Z,95058.19
2018-01-30T00:53:45.850Z,95063.81
2018-01-30T00:56:13.792Z,95070.74
2018-01-30T00:58:41.761Z,95059.94
2018-01-30T01:01:09.576Z,95072.25
2018-01-30T01:03:38.040Z,95083.02
2018-01-30T01:06:05.957Z,95064.04
2018-01-30T01:08:33.947Z,95066.66
2018-01-30T01:11:01.725Z,95057.95
2018-01-30T01:13:29.486Z,95061.72
2018-01-30T01:15:57.553Z,95065.49
2018-01-30T01:18:26.438Z,95059.77
2018-01-30T01:20:54.511Z,95050.75
2018-01-30T01:23:22.583Z,95060.11
2018-01-30T01:25:50.468Z,95036.03
2018-01-30T01:28:18.508Z,95033.20
2018-01-30T01:30:46.303Z,95028.21
2018-01-30T01:33:14.363Z,95031.50
2018-01-30T01:35:42.389Z,95029.50
2018-01-30T01:38:10.254Z,95022.56
2018-01-30T01:40:39.086Z,95015.88
2018-01-30T01:43:07.088Z,95014.52
2018-01-30T01:45:35.727Z,95020.58
2018-01-30T01:48:03.798Z,95008.00
2018-01-30T01:50:31.661Z,95004.88
2018-01-30T01:53:00.372Z,95007.34
2018-01-30T01:55:29.260Z,95010.30
2018-01-30T01:57:57.161Z,95005.92
2018-01-30T02:00:25.081Z,94996.43
2018-01-30T02:02:53.270Z,94998.26
2018-01-30T02:05:21.145Z,94986.86
2018-01-30T02:07:48.911Z,94977.28
2018-01-30T02:10:16.831Z,94988.39
2018-01-30T02:12:44.790Z,94996.82
2018-01-30T02:15:12.660Z,94993.27
2018-01-30T02:17:41.190Z,94980.08
2018-01-30T02:20:09.093Z,94980.33
2018-01-30T02:22:37.128Z,94985.82
2018-01-30T02:25:05.041Z,94982.59
2018-01-30T02:27:33.020Z,94975.11
2018-01-30T02:30:01.115Z,94961.08
2018-01-30T02:32:28.852Z,94970.34
2018-01-30T02:34:57.445Z,94965.26
2018-01-30T02:37:25.151Z,94970.57
2018-01-30T02:39:53.023Z,94956.89
2018-01-30T02:42:21.021Z,94956.44
2018-01-30T02:44:48.758Z,94961.15
2018-01-30T02:47:16.850Z,94962.69
2018-01-30T02:49:44.902Z,94949.59
2018-01-30T02:52:12.969Z,94960.70
2018-01-30T02:54:40.945Z,94964.72
2018-01-30T02:57:08.874Z,94959.00
2018-01-30T02:59:36.882Z,94965.40
2018-01-30T03:02:04.956Z,94969.19
2018-01-30T03:04:32.873Z,94960.34
2018-01-30T03:07:00.764Z,94966.36
2018-01-30T03:09:28.658Z,94956.91
2018-01-30T03:11:56.773Z,94966.42
2018-01-30T03:14:24.904Z,94968.96
2018-01-30T03:16:52.832Z,94960.22
2018-01-30T03:19:20.842Z,94972.99
2018-01-30T03:21:48.911Z,94969.98
2018-01-30T03:24:16.914Z,94969.49
2018-01-30T03:26:44.951Z,94966.88
2018-01-30T03:29:13.842Z,94978.61
2018-01-30T03:31:41.710Z,94968.48
2018-01-30T03:34:09.696Z,94970.76
2018-01-30T03:36:38.396Z,94965.98
2018-01-30T03:39:06.285Z,94969.94
2018-01-30T03:41:35.109Z,94981.98
2018-01-30T03:44:02.847Z,94988.14
2018-01-30T03:46:30.677Z,94986.34
2018-01-30T03:48:58.340Z,94988.42
2018-01-30T03:51:26.009Z,94987.57
2018-01-30T03:53:53.727Z,94985.66
2018-01-30T03:56:21.680Z,94995.83
2018-01-30T03:58:49.788Z,94996.18
2018-01-30T04:01:17.787Z,94999.86
2018-01-30T04:03:45.711Z,95008.22
2018-01-30T04:06:13.594Z,94996.08
2018-01-30T04:08:41.541Z,95007.30
2018-01-30T04:11:09.631Z,95008.16
2018-01-30T04:13:37.650Z,95007.91
2018-01-30T04:16:05.764Z,95010.33
2018-01-30T04:18:33.547Z,95015.69
2018-01-30T04:21:01.244Z,95013.75
2018-01-30T04:23:29.077Z,95019.70
2018-01-30T04:25:57.146Z,95019.84
2018-01-30T04:28:24.871Z,95017.37
2018-01-30T04:30:52.556Z,95020.31
2018-01-30T04:33:20.243Z,95014.55
2018-01-30T04:35:48.319Z,95017.13
2018-01-30T04:38:16.347Z,95024.83
2018-01-30T04:40:44.446Z,95024.07
2018-01-30T04:43:12.504Z,95035.58
2018-01-30T04:45:40.270Z,95035.04
2018-01-30T04:48:08.946Z,95034.22
2018-01-30T04:50:36.752Z,95031.88
2018-01-30T04:53:04.805Z,95031.73
2018-01-30T04:55:32.878Z,95029.14
2018-01-30T04:58:00.810Z,95034.20
2018-01-30T05:00:29.637Z,95034.45
2018-01-30T05:02:57.690Z,95036.54
2018-01-30T05:05:25.758Z,95045.28
2018-01-30T05:07:54.599Z,95034.77
2018-01-30T05:10:22.746Z,95048.91
2018-01-30T05:12:50.738Z,95051.36
2018-01-30T05:15:18.651Z,95050.02
2018-01-30T05:17:46.467Z,95050.88
2018-01-30T05:20:14.622Z,95060.13
2018-01-30T05:22:42.551Z,95068.25
2018-01-30T05:25:10.418Z,95064.48
2018-01-30T05:27:38.427Z,95064.94
2018-01-30T05:30:06.556Z,95071.50
2018-01-30T05:32:34.675Z,95076.91
2018-01-30T05:35:02.539Z,95079.34
2018-01-30T05:37:30.601Z,95081.64
2018-01-30T05:39:58.668Z,95080.19
2018-01-30T05:42:28.908Z,95088.28
2018-01-30T05:44:56.908Z,95093.73
2018-01-30T05:47:24.748Z,95098.84
2018-01-30T05:49:52.563Z,95103.82
2018-01-30T05:52:20.655Z,95091.62
2018-01-30T05:54:49.472Z,95101.19
2018-01-30T05:57:17.646Z,95101.38
2018-01-30T05:59:45.525Z,95111.34
2018-01-30T06:02:13.589Z,95115.89
2018-01-30T06:04:41.740Z,95117.67
2018-01-30T06:07:09.607Z,95109.81
2018-01-30T06:09:38.474Z,95114.56
2018-01-30T06:12:06.218Z,95116.84
2018-01-30T06:14:34.106Z,95121.48
2018-01-30T06:17:02.021Z,95113.71
2018-01-30T06:19:30.023Z,95117.23
2018-01-30T06:21:57.955Z,95122.31
2018-01-30T06:24:25.876Z,95123.35
2018-01-30T06:26:53.895Z,95126.78
2018-01-30T06:29:21.938Z,95124.29
2018-01-30T06:31:49.871Z,95130.50
2018-01-30T06:34:18.097Z,95125.42
2018-01-30T06:36:47.388Z,95116.12
2018-01-30T06:39:15.353Z,95117.83
2018-01-30T06:41:43.444Z,95128.15
2018-01-30T06:44:11.333Z,95115.42
2018-01-30T06:46:39.254Z,95125.16
2018-01-30T06:49:07.054Z,95127.44
2018-01-30T06:51:35.112Z,95128.81
2018-01-30T06:54:03.962Z,95140.80
2018-01-30T06:56:31.682Z,95134.58
2018-01-30T06:58:59.757Z,95145.21
2018-01-30T07:01:28.099Z,95133.14
2018-01-30T07:03:56.101Z,95140.94
2018-01-30T07:06:24.040Z,95150.78
2018-01-30T07:08:51.960Z,95142.64
2018-01-30T07:11:19.998Z,95148.12
2018-01-30T07:13:48.078Z,95151.11
2018-01-30T07:16:16.770Z,95154.47
2018-01-30T07:18:44.447Z,95152.22
2018-01-30T07:21:12.673Z,95152.16
2018-01-30T07:23:40.781Z,95158.24
2018-01-30T07:26:08.472Z,95158.16
2018-01-30T07:28:36.274Z,95150.38
2018-01-30T07:31:04.023Z,95156.39
2018-01-30T07:33:31.772Z,95162.98
2018-01-30T07:35:59.536Z,95160.20
2018-01-30T07:38:27.269Z,95156.81
2018-01-30T07:40:55.058Z,95155.97
2018-01-30T07:43:22.778Z,95158.88
2018-01-30T07:45:50.661Z,95159.33
2018-01-30T07:48:18.336Z,95162.31
2018-01-30T07:50:46.098Z,95165.48
2018-01-30T07:53:13.775Z,95168.62
2018-01-30T07:55:41.540Z,95170.48
2018-01-30T07:58:09.247Z,95164.86
2018-01-30T08:00:37.062Z,95153.77
2018-01-30T08:03:04.808Z,95165.78
2018-01-30T08:05:32.531Z,95163.41
2018-01-30T08:08:00.288Z,95162.81
2018-01-30T08:10:29.540Z,95158.38
2018-01-30T08:12:57.328Z,95156.38
2018-01-30T08:15:25.029Z,95164.54
2018-01-30T08:17:52.759Z,95170.23
2018-01-30T08:20:20.439Z,95159.66
2018-01-30T08:22:48.184Z,95168.20
2018-01-30T08:25:16.161Z,95171.38
2018-01-30T08:27:43.933Z,95177.84
2018-01-30T08:30:11.654Z,95171.11
2018-01-30T08:32:40.509Z,95167.09
2018-01-30T08:35:08.284Z,95164.98
2018-01-30T08:37:35.974Z,95172.97
2018-01-30T08:40:03.788Z,95176.13
2018-01-30T08:42:31.467Z,95185.91
2018-01-30T08:44:59.187Z,95185.89
2018-01-30T08:47:26.992Z,95188.81
2018-01-30T08:49:54.795Z,95177.41
2018-01-30T08:52:22.555Z,95180.49
2018-01-30T08:54:50.237Z,95179.83
2018-01-30T08:57:18.492Z,95183.64
2018-01-30T08:59:46.242Z,95187.92
2018-01-30T09:02:13.988Z,95191.84
2018-01-30T09:04:41.950Z,95188.80
2018-01-30T09:07:09.654Z,95184.11
2018-01-30T09:09:37.456Z,95188.80
2018-01-30T09:12:05.228Z,95191.87
2018-01-30T09:14:32.901Z,95196.42
2018-01-30T09:17:00.650Z,95195.48
2018-01-30T09:19:28.365Z,95196.25
2018-01-30T09:21:56.076Z,95202.56
2018-01-30T09:24:23.772Z,95198.95
2018-01-30T09:26:51.497Z,95199.10
2018-01-30T09:29:19.242Z,95199.53
2018-01-30T09:31:47.007Z,95200.66
2018-01-30T09:34:14.831Z,95213.33
2018-01-30T09:36:42.658Z,95215.41
2018-01-30T09:39:10.334Z,95209.13
2018-01-30T09:41:38.040Z,95219.85
2018-01-30T09:44:05.773Z,95228.73
2018-01-30T09:46:33.486Z,95224.73
2018-01-30T09:49:01.207Z,95211.92
2018-01-30T09:51:28.897Z,95213.47
2018-01-30T09:53:56.639Z,95209.53
2018-01-30T09:56:24.582Z,95212.29
2018-01-30T09:58:52.296Z,95203.31
2018-01-30T10:01:20.149Z,95212.06
2018-01-30T10:03:47.893Z,95201.03
2018-01-30T10:06:15.650Z,95214.61
2018-01-30T10:08:43.426Z,95213.75
2018-01-30T10:11:11.250Z,95220.45
2018-01-30T10:13:39.210Z,95218.94
2018-01-30T10:16:06.914Z,95208.64
2018-01-30T10:18:34.663Z,95200.16
2018-01-30T10:21:02.589Z,95206.58
2018-01-30T10:23:32.910Z,95202.38
2018-01-30T10:26:01.577Z,95194.53
2018-01-30T10:28:30.416Z,95194.27
2018-01-30T10:30:58.385Z,95185.17
2018-01-30T10:33:26.446Z,95183.66
2018-01-30T10:35:54.393Z,95177.55
2018-01-30T10:38:22.288Z,95178.25
2018-01-30T10:40:50.257Z,95174.17
2018-01-30T10:43:18.293Z,95163.02
2018-01-30T10:45:46.385Z,95162.26
2018-01-30T10:48:14.471Z,95156.47
2018-01-30T10:50:42.744Z,95166.48
2018-01-30T10:53:10.764Z,95163.84
2018-01-30T10:55:38.831Z,95153.63
2018-01-30T10:58:07.573Z,95155.16
2018-01-30T11:00:35.444Z,95160.59
2018-01-30T11:03:03.606Z,95157.28
2018-01-30T11:05:31.596Z,95157.53
2018-01-30T11:08:00.612Z,95160.71
2018-01-30T11:10:28.635Z,95156.29
2018-01-30T11:12:56.576Z,95134.95
2018-01-30T11:15:24.466Z,95137.10
2018-01-30T11:17:52.358Z,95133.44
2018-01-30T11:20:21.256Z,95140.56
2018-01-30T11:22:49.246Z,95138.37
2018-01-30T11:25:17.287Z,95142.66
2018-01-30T11:27:45.330Z,95142.20
2018-01-30T11:30:13.395Z,95139.84
2018-01-30T11:32:41.485Z,95140.08
2018-01-30T11:35:10.395Z,95132.28
2018-01-30T11:37:38.422Z,95151.27
2018-01-30T11:40:06.231Z,95115.97
2018-01-30T11:42:34.409Z,95125.47
2018-01-30T11:45:02.275Z,95126.97
2018-01-30T11:47:30.351Z,95121.27
2018-01-30T11:49:58.518Z,95116.20
2018-01-30T11:52:26.575Z,95112.56
2018-01-30T11:54:54.288Z,95116.33
2018-01-30T11:57:22.095Z,95117.43
2018-01-30T11:59:49.827Z,95122.47
2018-01-30T12:02:17.553Z,95120.05
2018-01-30T12:04:45.320Z,95120.87
2018-01-30T12:07:13.121Z,95114.94
2018-01-30T12:09:42.212Z,95113.61
2018-01-30T12:12:09.943Z,95110.23
2018-01-30T12:14:37.682Z,95093.78
2018-01-30T12:17:05.385Z,95091.70
2018-01-30T12:19:33.135Z,95085.36
2018-01-30T12:22:00.913Z,95091.45
2018-01-30T12:24:28.621Z,95090.58
2018-01-30T12:26:56.437Z,95089.69
2018-01-30T12:29:24.139Z,95082.47
2018-01-30T12:31:51.893Z,95085.84
2018-01-30T12:34:19.572Z,95074.14
2018-01-30T12:36:47.409Z,95071.50
2018-01-30T12:39:15.105Z,95064.63
2018-01-30T12:41:42.890Z,95067.51
2018-01-30T12:44:10.678Z,95079.20
2018-01-30T12:46:38.451Z,95086.08
2018-01-30T12:49:06.146Z,95082.22
2018-01-30T12:51:34.939Z,95070.64
2018-01-30T12:54:03.098Z,95074.17
2018-01-30T12:56:30.994Z,95072.84
2018-01-30T12:58:58.859Z,95072.97
2018-01-30T13:01:27.553Z,95067.56
2018-01-30T13:03:55.724Z,95064.54
2018-01-30T13:06:23.486Z,95061.97
2018-01-30T13:08:51.237Z,95067.04
2018-01-30T13:11:19.009Z,95074.95
2018-01-30T13:13:46.698Z,95070.44
2018-01-30T13:16:14.721Z,95069.08
2018-01-30T13:18:42.437Z,95071.14
2018-01-30T13:21:10.204Z,95073.84
2018-01-30T13:23:37.946Z,95074.21
2018-01-30T13:26:05.661Z,95074.11
2018-01-30T13:28:33.427Z,95072.20
2018-01-30T13:31:01.181Z,95081.03
2018-01-30T13:33:28.954Z,95080.41
2018-01-30T13:35:56.742Z,95080.81
2018-01-30T13:38:24.496Z,95083.91
2018-01-30T13:40:52.266Z,95075.23
2018-01-30T13:43:20.074Z,95078.49
2018-01-30T13:45:47.794Z,95078.40
2018-01-30T13:48:15.620Z,95070.23
2018-01-30T13:50:44.553Z,95071.92
2018-01-30T13:53:12.273Z,95076.63
2018-01-30T13:55:40.010Z,95075.88
2018-01-30T13:58:07.717Z,95076.64
2018-01-30T14:00:35.545Z,95082.59
2018-01-30T14:03:04.352Z,95082.91
2018-01-30T14:05:33.018Z,95083.66
2018-01-30T14:08:01.185Z,95082.77
2018-01-30T14:10:28.945Z,95086.07
2018-01-30T14:12:56.677Z,95087.16
2018-01-30T14:15:24.498Z,95091.53
2018-01-30T14:17:52.174Z,95088.20
2018-01-30T14:20:19.977Z,95081.27
2018-01-30T14:22:47.726Z,95078.75
2018-01-30T14:25:15.511Z,95077.45
2018-01-30T14:27:44.148Z,95077.77
2018-01-30T14:30:11.964Z,95076.68
2018-01-30T14:32:39.625Z,95072.53
2018-01-30T14:35:07.768Z,95074.02
2018-01-30T14:37:35.598Z,95066.27
2018-01-30T14:40:03.426Z,95068.48
2018-01-30T14:42:31.296Z,95066.05
2018-01-30T14:44:59.003Z,95062.05
2018-01-30T14:47:26.780Z,95065.34
2018-01-30T14:49:54.590Z,95064.59
2018-01-30T14:52:22.353Z,95061.00
2018-01-30T14:54:50.110Z,95054.55
2018-01-30T14:57:17.780Z,95057.73
2018-01-30T14:59:45.534Z,95057.19
2018-01-30T15:02:13.262Z,95057.80
2018-01-30T15:04:41.155Z,95054.55
2018-01-30T15:07:08.850Z,95059.22
2018-01-30T15:09:36.653Z,95052.42
2018-01-30T15:12:04.842Z,95046.53
2018-01-30T15:14:32.656Z,95050.19
2018-01-30T15:17:00.476Z,95054.45
2018-01-30T15:19:28.253Z,95058.09
2018-01-30T15:21:57.302Z,95059.21
2018-01-30T15:24:25.114Z,95055.46
2018-01-30T15:26:52.942Z,95058.80
2018-01-30T15:29:20.690Z,95062.56
2018-01-30T15:31:48.557Z,95059.47
2018-01-30T15:34:16.722Z,95057.27
2018-01-30T15:36:44.492Z,95061.53
2018-01-30T15:39:12.198Z,95062.89
2018-01-30T15:41:41.064Z,95062.48
2018-01-30T15:44:08.821Z,95069.87
2018-01-30T15:46:36.516Z,95070.80
2018-01-30T15:49:04.276Z,95065.34
2018-01-30T15:51:32.058Z,95068.88
2018-01-30T15:53:59.759Z,95069.39
2018-01-30T15:56:27.518Z,95064.29
2018-01-30T15:58:55.359Z,95068.51
2018-01-30T16:01:24.524Z,95070.92
2018-01-30T16:03:52.551Z,95076.91
2018-01-30T16:06:20.477Z,95075.22
2018-01-30T16:08:48.170Z,95076.97
2018-01-30T16:11:16.048Z,95080.45
2018-01-30T16:13:43.893Z,95071.25
2018-01-30T16:16:11.726Z,95074.48
2018-01-30T16:18:39.447Z,95067.41
2018-01-30T16:21:07.340Z,95072.07
2018-01-30T16:23:35.058Z,95074.88
2018-01-30T16:26:02.876Z,95076.08
2018-01-30T16:28:30.662Z,95070.80
2018-01-30T16:30:58.408Z,95082.75
2018-01-30T16:33:26.138Z,95078.98
2018-01-30T16:35:53.944Z,95081.75
2018-01-30T16:38:21.625Z,95086.37
2018-01-30T16:40:50.463Z,95086.91
2018-01-30T16:43:18.328Z,95091.43
2018-01-30T16:45:46.163Z,95091.48
2018-01-30T16:50:47.939Z,95081.93
2018-01-30T16:53:15.663Z,95084.00
2018-01-30T16:55:43.522Z,95089.62
2018-01-30T16:58:11.401Z,95089.13
2018-01-30T17:00:39.245Z,95089.70
2018-01-30T17:03:07.207Z,95092.20
2018-01-30T17:05:35.083Z,95096.44
2018-01-30T17:08:03.313Z,95094.61
2018-01-30T17:10:32.221Z,95097.28
2018-01-30T17:13:01.454Z,95098.05
2018-01-30T17:15:29.469Z,95096.05
2018-01-30T17:17:58.724Z,95094.31
2018-01-30T17:20:26.678Z,95091.95
2018-01-30T17:22:55.953Z,95090.86
2018-01-30T17:25:24.488Z,95097.66
2018-01-30T17:27:52.379Z,95095.16
2018-01-30T17:30:20.668Z,95093.37
2018-01-30T17:32:48.578Z,95088.27
2018-01-30T17:35:16.580Z,95093.61
2018-01-30T17:37:44.702Z,95096.69
2018-01-30T17:40:12.760Z,95097.39
2018-01-30T17:42:40.824Z,95098.09
2018-01-30T17:45:08.611Z,95089.12
2018-01-30T17:47:36.355Z,95095.36
2018-01-30T17:50:05.296Z,95101.47
2018-01-30T17:52:33.316Z,95099.08
2018-01-30T17:55:01.899Z,95099.11
2018-01-30T17:57:29.664Z,95089.37
2018-01-30T17:59:57.449Z,95098.30
2018-01-30T18:02:25.287Z,95105.54
2018-01-30T18:04:53.032Z,95104.84
2018-01-30T18:07:20.774Z,95103.27
2018-01-30T18:09:48.796Z,95103.70
2018-01-30T18:12:16.662Z,95102.16
2018-01-30T18:14:44.824Z,95100.95
2018-01-30T18:17:12.599Z,95102.17
2018-01-30T18:19:41.045Z,95106.34
2018-01-30T18:22:09.332Z,95102.65
2018-01-30T18:24:38.072Z,95105.25
2018-01-30T18:27:06.120Z,95104.59
2018-01-30T18:29:34.129Z,95098.50
2018-01-30T18:32:02.155Z,95103.81
2018-01-30T18:34:30.211Z,95098.12
2018-01-30T18:36:58.199Z,95101.97
2018-01-30T18:39:26.687Z,95094.27
2018-01-30T18:41:54.636Z,95096.69
2018-01-30T18:44:22.587Z,95096.81
2018-01-30T18:46:50.584Z,95101.34
2018-01-30T18:49:18.581Z,95099.18
2018-01-30T18:51:46.736Z,95097.31
2018-01-30T18:54:15.689Z,95096.17
2018-01-30T18:56:43.423Z,95095.53
2018-01-30T18:59:11.276Z,95092.78
2018-01-30T19:01:39.151Z,95091.25
2018-01-30T19:04:07.404Z,95085.86
2018-01-30T19:06:36.558Z,95087.83
2018-01-30T19:09:05.476Z,95081.00
2018-01-30T19:11:33.663Z,95090.34
2018-01-30T19:14:01.740Z,95082.34
2018-01-30T19:16:30.602Z,95076.95
2018-01-30T19:18:59.256Z,95083.11
2018-01-30T19:21:27.084Z,95081.44
2018-01-30T19:23:56.445Z,95087.36
2018-01-30T19:26:24.250Z,95075.03
2018-01-30T19:28:51.967Z,95078.97
2018-01-30T19:31:19.735Z,95081.30
2018-01-30T19:33:47.453Z,95083.58
2018-01-30T19:36:15.274Z,95078.39
2018-01-30T19:38:43.074Z,95074.44
2018-01-30T19:41:11.006Z,95074.16
2018-01-30T19:43:38.893Z,95075.88
2018-01-30T19:46:07.160Z,95069.84
2018-01-30T19:48:35.119Z,95075.72
2018-01-30T19:51:03.820Z,95076.59
2018-01-30T19:53:32.506Z,95077.00
2018-01-30T19:56:01.048Z,95071.95
2018-01-30T19:58:31.382Z,95073.49
2018-01-30T20:01:01.458Z,95068.96
2018-01-30T20:03:29.834Z,95069.70
2018-01-30T20:05:57.794Z,95076.35
2018-01-30T20:08:25.733Z,95079.58
2018-01-30T20:10:54.676Z,95087.14
2018-01-30T20:13:23.238Z,95083.70
2018-01-30T20:15:51.217Z,95075.11
2018-01-30T20:18:18.979Z,95080.94
2018-01-30T20:23:37.896Z,95076.79
2018-01-30T20:26:05.713Z,95072.14
2018-01-30T20:28:33.506Z,95082.95
2018-01-30T20:31:01.366Z,95073.98
2018-01-30T20:33:29.198Z,95072.72
2018-01-30T20:35:57.029Z,95068.15
2018-01-30T20:38:24.810Z,95063.91
2018-01-30T20:40:52.676Z,95058.84
2018-01-30T20:43:20.465Z,95059.09
2018-01-30T20:45:48.307Z,95048.63
2018-01-30T20:48:16.097Z,95053.53
2018-01-30T20:50:43.958Z,95057.30
2018-01-30T20:53:11.690Z,95053.66
2018-01-30T20:55:39.511Z,95045.60
2018-01-30T20:58:07.425Z,95046.34
2018-01-30T21:00:35.234Z,95045.94
2018-01-30T21:03:02.957Z,95043.11
2018-01-30T21:05:30.709Z,95040.33
2018-01-30T21:07:58.538Z,95035.16
2018-01-30T21:10:26.344Z,95041.80
2018-01-30T21:12:54.168Z,95039.45
2018-01-30T21:15:21.963Z,95035.41
2018-01-30T21:17:49.685Z,95033.64
2018-01-30T21:20:17.511Z,95035.62
2018-01-30T21:22:45.260Z,95030.30
2018-01-30T21:25:12.972Z,95033.08
2018-01-30T21:27:40.776Z,95037.03
2018-01-30T21:30:08.476Z,95033.75
2018-01-30T21:32:36.232Z,95030.63
2018-01-30T21:35:04.016Z,95032.03
2018-01-30T21:37:31.794Z,95030.96
2018-01-30T21:39:59.571Z,95028.78
2018-01-30T21:42:27.340Z,95023.36
2018-01-30T21:44:55.130Z,95029.48
2018-01-30T21:47:22.912Z,95020.64
2018-01-30T21:49:50.731Z,95016.55
2018-01-30T21:52:18.512Z,95014.80
2018-01-30T21:54:46.240Z,95012.99
2018-01-30T21:57:13.953Z,95015.53
2018-01-30T21:59:41.717Z,95007.44
2018-01-30T22:02:09.419Z,95008.30
2018-01-30T22:04:37.178Z,95000.63
2018-01-30T22:07:04.966Z,94999.80
2018-01-30T22:09:32.626Z,94995.98
2018-01-30T22:12:00.301Z,94993.17
2018-01-30T22:14:28.088Z,94997.39
2018-01-30T22:16:55.872Z,94990.98
2018-01-30T22:19:23.553Z,94983.84
2018-01-30T22:21:51.299Z,94977.64
2018-01-30T22:24:19.155Z,94967.89
2018-01-30T22:26:46.982Z,94962.63
2018-01-30T22:29:14.982Z,94961.86
2018-01-30T22:31:42.774Z,94963.43
2018-01-30T22:34:10.533Z,94956.55
2018-01-30T22:36:38.424Z,94950.52
2018-01-30T22:39:06.825Z,94949.41
2018-01-30T22:41:34.635Z,94946.63
2018-01-30T22:44:02.345Z,94941.85
2018-01-30T22:46:30.098Z,94941.06
